createdAt,value
2017-10-26T00:01:13.373Z,96.40
2017-10-26T00:03:41.560Z,96.40
2017-10-26T00:06:08.997Z,96.00
2017-10-26T00:08:37.268Z,96.00
2017-10-26T00:11:04.706Z,96.10
2017-10-26T00:13:32.137Z,96.00
2017-10-26T00:15:59.568Z,95.90
2017-10-26T00:18:26.996Z,96.00
2017-10-26T00:20:54.432Z,95.90
2017-10-26T00:23:21.865Z,95.80
2017-10-26T00:25:49.301Z,95.80
2017-10-26T00:28:16.742Z,95.80
2017-10-26T00:30:44.945Z,96.40
2017-10-26T00:33:12.370Z,96.40
2017-10-26T00:35:41.192Z,96.50
2017-10-26T00:38:08.620Z,96.50
2017-10-26T00:40:36.824Z,96.20
2017-10-26T00:43:04.248Z,96.20
2017-10-26T00:45:32.457Z,96.40
2017-10-26T00:47:59.882Z,96.40
2017-10-26T00:50:28.163Z,96.30
2017-10-26T00:52:56.357Z,96.40
2017-10-26T00:55:23.785Z,96.30
2017-10-26T00:57:51.980Z,96.30
2017-10-26T01:00:19.407Z,96.30
2017-10-26T01:02:47.606Z,96.30
2017-10-26T01:05:15.045Z,96.20
2017-10-26T01:07:43.264Z,96.10
2017-10-26T01:10:10.721Z,96.10
2017-10-26T01:12:38.169Z,96.20
2017-10-26T01:15:05.595Z,97.10
2017-10-26T01:17:33.787Z,97.10
2017-10-26T01:20:01.216Z,97.10
2017-10-26T01:22:29.414Z,96.60
2017-10-26T01:24:56.845Z,96.50
2017-10-26T01:27:25.043Z,96.40
2017-10-26T01:29:52.473Z,96.40
2017-10-26T01:32:19.909Z,96.40
2017-10-26T01:34:47.336Z,96.50
2017-10-26T01:37:14.770Z,96.70
2017-10-26T01:39:42.200Z,96.80
2017-10-26T01:42:10.401Z,96.90
2017-10-26T01:44:37.828Z,96.90
2017-10-26T01:47:05.255Z,96.60
2017-10-26T01:49:32.684Z,96.90
2017-10-26T01:52:00.126Z,96.60
2017-10-26T01:54:28.570Z,96.80
2017-10-26T01:56:56.009Z,96.90
2017-10-26T01:59:23.445Z,96.90
2017-10-26T02:01:50.876Z,97.00
2017-10-26T02:04:18.303Z,96.90
2017-10-26T02:06:46.505Z,96.50
2017-10-26T02:09:13.935Z,96.50
2017-10-26T02:11:41.376Z,96.50
2017-10-26T02:14:08.845Z,96.50
2017-10-26T02:16:36.264Z,96.50
2017-10-26T02:19:03.693Z,96.40
2017-10-26T02:21:31.137Z,96.40
2017-10-26T02:23:59.336Z,96.40
2017-10-26T02:26:26.761Z,96.40
2017-10-26T02:29:06.771Z,96.10
2017-10-26T02:31:35.741Z,96.00
2017-10-26T02:34:03.164Z,96.20
2017-10-26T02:36:31.348Z,96.10
2017-10-26T02:38:58.772Z,96.10
2017-10-26T02:41:26.196Z,96.00
2017-10-26T02:43:53.634Z,96.00
2017-10-26T02:46:21.056Z,95.80
2017-10-26T02:48:49.259Z,95.60
2017-10-26T02:51:16.693Z,95.50
2017-10-26T02:53:44.888Z,95.60
2017-10-26T02:56:12.317Z,95.60
2017-10-26T02:58:40.519Z,95.90
2017-10-26T03:01:07.948Z,95.90
2017-10-26T03:03:36.156Z,95.90
2017-10-26T03:06:03.585Z,95.90
2017-10-26T03:08:31.802Z,96.20
2017-10-26T03:10:59.227Z,96.10
2017-10-26T03:13:27.437Z,96.10
2017-10-26T03:15:54.871Z,96.10
2017-10-26T03:18:22.301Z,96.00
2017-10-26T03:20:50.496Z,95.90
2017-10-26T03:23:17.931Z,95.90
2017-10-26T03:25:46.120Z,95.80
2017-10-26T03:28:13.603Z,95.70
2017-10-26T03:30:42.058Z,95.70
2017-10-26T03:33:10.259Z,96.10
2017-10-26T03:35:37.676Z,96.50
2017-10-26T03:38:05.888Z,96.10
2017-10-26T03:40:33.304Z,96.10
2017-10-26T03:43:01.508Z,96.40
2017-10-26T03:45:28.938Z,96.40
2017-10-26T03:47:57.128Z,96.10
2017-10-26T03:50:24.551Z,96.10
2017-10-26T03:52:52.003Z,96.10
2017-10-26T03:55:19.422Z,96.50
2017-10-26T03:57:46.839Z,96.50
2017-10-26T04:00:15.055Z,96.40
2017-10-26T04:02:42.475Z,96.40
2017-10-26T04:05:10.672Z,96.30
2017-10-26T04:07:38.091Z,96.20
2017-10-26T04:10:05.531Z,96.20
2017-10-26T04:12:32.954Z,96.20
2017-10-26T04:15:00.375Z,96.10
2017-10-26T04:17:28.591Z,96.20
2017-10-26T04:19:56.021Z,96.10
2017-10-26T04:22:23.460Z,96.10
2017-10-26T04:24:51.647Z,96.20
2017-10-26T04:27:19.071Z,96.20
2017-10-26T04:29:46.500Z,96.20
2017-10-26T04:32:14.684Z,96.40
2017-10-26T04:34:42.120Z,96.40
2017-10-26T04:37:09.548Z,96.50
2017-10-26T04:39:36.982Z,96.60
2017-10-26T04:42:04.399Z,96.60
2017-10-26T04:44:31.837Z,96.70
2017-10-26T04:46:59.274Z,96.90
2017-10-26T04:49:26.714Z,97.00
2017-10-26T04:51:54.913Z,96.90
2017-10-26T04:54:22.340Z,96.90
2017-10-26T04:56:50.536Z,97.00
2017-10-26T04:59:17.967Z,97.00
2017-10-26T05:01:45.415Z,97.10
2017-10-26T05:04:12.860Z,97.10
2017-10-26T05:06:40.304Z,97.00
2017-10-26T05:09:07.745Z,97.10
2017-10-26T05:11:35.208Z,97.20
2017-10-26T05:14:03.648Z,97.40
2017-10-26T05:16:31.832Z,97.40
2017-10-26T05:18:59.272Z,97.40
2017-10-26T05:21:27.464Z,97.40
2017-10-26T05:23:54.892Z,97.30
2017-10-26T05:26:22.318Z,97.20
2017-10-26T05:28:49.758Z,96.90
2017-10-26T05:31:17.176Z,96.80
2017-10-26T05:33:45.385Z,96.80
2017-10-26T05:36:12.832Z,96.80
2017-10-26T05:38:40.263Z,96.70
2017-10-26T05:41:08.451Z,96.50
2017-10-26T05:43:35.889Z,96.50
2017-10-26T05:46:04.080Z,96.80
2017-10-26T05:48:31.519Z,96.80
2017-10-26T05:50:59.712Z,97.10
2017-10-26T05:53:27.168Z,97.10
2017-10-26T05:55:55.396Z,97.10
2017-10-26T05:58:22.839Z,97.20
2017-10-26T06:00:50.379Z,97.30
2017-10-26T06:03:18.815Z,97.40
2017-10-26T06:05:46.245Z,97.40
2017-10-26T06:08:13.700Z,97.40
2017-10-26T06:10:41.140Z,97.30
2017-10-26T06:13:08.563Z,97.20
2017-10-26T06:15:36.756Z,97.00
2017-10-26T06:18:04.173Z,97.00
2017-10-26T06:20:31.627Z,97.00
2017-10-26T06:22:59.049Z,97.00
2017-10-26T06:25:26.510Z,96.50
2017-10-26T06:27:53.931Z,96.50
2017-10-26T06:30:21.369Z,96.50
2017-10-26T06:32:49.559Z,96.50
2017-10-26T06:35:16.996Z,96.50
2017-10-26T06:37:45.193Z,96.90
2017-10-26T06:40:12.619Z,97.30
2017-10-26T06:42:40.050Z,97.00
2017-10-26T06:45:07.484Z,97.10
2017-10-26T06:47:34.915Z,97.00
2017-10-26T06:50:02.360Z,97.00
2017-10-26T06:52:30.544Z,96.90
2017-10-26T06:54:57.981Z,96.90
2017-10-26T06:57:26.177Z,97.10
2017-10-26T06:59:53.605Z,97.10
2017-10-26T07:02:21.038Z,97.30
2017-10-26T07:04:48.475Z,97.30
2017-10-26T07:07:16.011Z,97.40
2017-10-26T07:09:44.215Z,97.30
2017-10-26T07:12:11.627Z,97.30
2017-10-26T07:14:39.833Z,97.40
2017-10-26T07:17:07.279Z,97.40
2017-10-26T07:19:34.715Z,97.40
2017-10-26T07:22:02.185Z,97.40
2017-10-26T07:24:30.364Z,97.30
2017-10-26T07:26:57.795Z,97.30
2017-10-26T07:29:26.007Z,97.30
2017-10-26T07:31:53.428Z,97.20
2017-10-26T07:34:21.641Z,97.20
2017-10-26T07:36:49.092Z,97.20
2017-10-26T07:39:16.496Z,97.30
2017-10-26T07:41:43.923Z,97.10
2017-10-26T07:44:11.367Z,97.20
2017-10-26T07:46:38.812Z,97.10
2017-10-26T07:49:06.255Z,97.20
2017-10-26T07:51:34.503Z,97.10
2017-10-26T07:54:01.937Z,97.10
2017-10-26T07:56:29.368Z,97.10
2017-10-26T07:58:56.800Z,97.30
2017-10-26T08:01:25.284Z,97.20
2017-10-26T08:03:53.455Z,96.10
2017-10-26T08:06:20.892Z,96.00
2017-10-26T08:08:49.089Z,96.00
2017-10-26T08:11:16.519Z,96.00
2017-10-26T08:13:43.967Z,95.70
2017-10-26T08:16:11.406Z,95.70
2017-10-26T08:18:38.841Z,95.40
2017-10-26T08:21:06.281Z,95.50
2017-10-26T08:23:33.718Z,95.20
2017-10-26T08:26:01.919Z,94.70
2017-10-26T08:28:29.355Z,94.70
2017-10-26T08:30:56.803Z,94.90
2017-10-26T08:33:24.991Z,95.20
2017-10-26T08:35:52.423Z,95.10
2017-10-26T08:38:20.631Z,95.50
2017-10-26T08:40:48.064Z,95.40
2017-10-26T08:43:16.252Z,95.40
2017-10-26T08:45:43.699Z,95.40
2017-10-26T08:48:11.906Z,95.50
2017-10-26T08:50:39.344Z,95.50
2017-10-26T08:53:06.775Z,95.60
2017-10-26T08:55:34.209Z,95.20
2017-10-26T08:58:01.645Z,95.40
2017-10-26T09:00:29.072Z,96.10
2017-10-26T09:02:56.522Z,95.60
2017-10-26T09:05:23.948Z,95.30
2017-10-26T09:07:51.379Z,95.50
2017-10-26T09:10:19.581Z,95.60
2017-10-26T09:12:47.837Z,95.60
2017-10-26T09:15:15.318Z,95.50
2017-10-26T09:17:42.749Z,95.70
2017-10-26T09:20:10.180Z,95.20
2017-10-26T09:22:37.621Z,94.80
2017-10-26T09:25:05.052Z,94.70
2017-10-26T09:27:33.327Z,94.60
2017-10-26T09:30:01.523Z,93.90
2017-10-26T09:32:28.965Z,93.90
2017-10-26T09:34:56.396Z,93.60
2017-10-26T09:37:23.830Z,93.10
2017-10-26T09:39:51.272Z,92.90
2017-10-26T09:42:18.775Z,93.40
2017-10-26T09:44:46.213Z,93.00
2017-10-26T09:47:13.652Z,93.50
2017-10-26T09:49:41.080Z,93.70
2017-10-26T09:52:08.512Z,93.20
2017-10-26T09:54:36.699Z,89.80
2017-10-26T09:57:04.968Z,85.40
2017-10-26T09:59:33.164Z,83.80
2017-10-26T10:02:00.587Z,83.70
2017-10-26T10:04:28.031Z,80.00
2017-10-26T10:06:55.464Z,78.00
2017-10-26T10:09:22.891Z,75.90
2017-10-26T10:11:50.322Z,76.90
2017-10-26T10:14:18.503Z,77.60
2017-10-26T10:16:46.701Z,78.20
2017-10-26T10:19:14.128Z,78.10
2017-10-26T10:21:42.317Z,75.20
2017-10-26T10:24:09.749Z,75.20
2017-10-26T10:26:37.992Z,75.80
2017-10-26T10:29:05.420Z,76.10
2017-10-26T10:31:32.845Z,75.10
2017-10-26T10:34:01.034Z,72.90
2017-10-26T10:36:28.465Z,72.70
2017-10-26T10:38:55.899Z,74.50
2017-10-26T10:41:23.340Z,72.70
2017-10-26T10:43:50.755Z,71.90
2017-10-26T10:46:18.938Z,73.70
2017-10-26T10:48:46.369Z,73.70
2017-10-26T10:51:13.787Z,70.80
2017-10-26T10:53:41.232Z,72.20
2017-10-26T10:56:08.682Z,72.20
2017-10-26T10:58:36.354Z,74.50
2017-10-26T11:01:03.851Z,74.80
2017-10-26T11:03:31.291Z,76.30
2017-10-26T11:05:58.704Z,76.90
2017-10-26T11:08:26.141Z,78.80
2017-10-26T11:10:54.346Z,80.70
2017-10-26T11:13:21.772Z,80.70
2017-10-26T11:15:49.985Z,83.50
2017-10-26T11:18:17.501Z,83.30
2017-10-26T11:20:44.947Z,84.30
2017-10-26T11:23:12.377Z,84.90
2017-10-26T11:25:39.816Z,85.10
2017-10-26T11:28:07.252Z,86.70
2017-10-26T11:30:34.683Z,86.70
2017-10-26T11:33:02.900Z,87.60
2017-10-26T11:35:30.332Z,87.50
2017-10-26T11:37:57.765Z,89.20
2017-10-26T11:40:25.195Z,89.30
2017-10-26T11:42:52.632Z,89.80
2017-10-26T11:45:20.067Z,90.00
2017-10-26T11:47:47.500Z,89.50
2017-10-26T11:50:15.704Z,90.30
2017-10-26T11:52:43.145Z,90.30
2017-10-26T11:55:10.585Z,90.80
2017-10-26T11:57:38.779Z,90.30
2017-10-26T12:00:06.229Z,90.30
2017-10-26T12:02:34.415Z,90.50
2017-10-26T12:05:01.847Z,90.40
2017-10-26T12:07:30.044Z,90.70
2017-10-26T12:09:57.479Z,90.60
2017-10-26T12:12:25.673Z,91.40
2017-10-26T12:14:53.116Z,91.10
2017-10-26T12:17:21.308Z,90.10
2017-10-26T12:19:48.745Z,90.10
2017-10-26T12:22:16.938Z,90.50
2017-10-26T12:24:44.363Z,90.50
2017-10-26T12:27:11.969Z,90.70
2017-10-26T12:29:39.394Z,90.60
2017-10-26T12:32:07.591Z,90.90
2017-10-26T12:34:35.035Z,90.90
2017-10-26T12:37:02.567Z,91.00
2017-10-26T12:39:29.993Z,90.70
2017-10-26T12:41:57.433Z,91.00
2017-10-26T12:44:24.876Z,91.10
2017-10-26T12:46:52.304Z,90.90
2017-10-26T12:49:20.505Z,91.00
2017-10-26T12:51:47.944Z,91.00
2017-10-26T12:54:16.141Z,90.30
2017-10-26T12:56:43.571Z,90.30
2017-10-26T12:59:11.763Z,90.10
2017-10-26T13:01:40.237Z,90.10
2017-10-26T13:04:08.427Z,90.00
2017-10-26T13:06:35.872Z,90.00
2017-10-26T13:09:04.219Z,90.20
2017-10-26T13:11:31.648Z,90.10
2017-10-26T13:13:59.087Z,89.90
2017-10-26T13:16:26.524Z,89.60
2017-10-26T13:18:53.947Z,90.00
2017-10-26T13:21:21.380Z,90.00
2017-10-26T13:23:48.813Z,90.20
2017-10-26T13:26:16.243Z,91.20
2017-10-26T13:28:43.671Z,89.10
2017-10-26T13:31:11.108Z,88.90
2017-10-26T13:33:38.539Z,88.30
2017-10-26T13:36:06.056Z,88.30
2017-10-26T13:38:34.260Z,89.50
2017-10-26T13:41:01.684Z,89.50
2017-10-26T13:43:29.975Z,89.40
2017-10-26T13:45:58.176Z,88.90
2017-10-26T13:48:25.609Z,88.90
2017-10-26T13:50:53.817Z,89.00
2017-10-26T13:53:21.244Z,89.00
2017-10-26T13:55:48.684Z,90.10
2017-10-26T13:58:16.905Z,88.90
2017-10-26T14:00:44.319Z,88.90
2017-10-26T14:03:12.532Z,88.50
2017-10-26T14:05:39.960Z,88.50
2017-10-26T14:08:08.208Z,88.90
2017-10-26T14:10:35.666Z,88.90
2017-10-26T14:13:03.109Z,88.70
2017-10-26T14:15:30.542Z,89.20
2017-10-26T14:17:57.971Z,89.50
2017-10-26T14:20:25.409Z,89.10
2017-10-26T14:22:53.658Z,88.50
2017-10-26T14:25:21.083Z,88.40
2017-10-26T14:27:48.515Z,88.70
2017-10-26T14:30:15.947Z,88.80
2017-10-26T14:32:44.144Z,89.00
2017-10-26T14:35:11.598Z,88.90
2017-10-26T14:37:39.783Z,90.00
2017-10-26T14:40:07.263Z,90.00
2017-10-26T14:42:34.728Z,89.70
2017-10-26T14:45:02.151Z,89.40
2017-10-26T14:47:29.583Z,89.90
2017-10-26T14:49:57.795Z,90.20
2017-10-26T14:52:25.235Z,90.20
2017-10-26T14:54:52.655Z,89.70
2017-10-26T14:57:20.096Z,90.00
2017-10-26T14:59:47.537Z,89.30
2017-10-26T15:02:14.984Z,89.60
2017-10-26T15:04:42.434Z,90.00
2017-10-26T15:07:09.856Z,89.80
2017-10-26T15:09:38.057Z,90.30
2017-10-26T15:12:05.488Z,90.30
2017-10-26T15:14:33.716Z,90.10
2017-10-26T15:17:01.156Z,90.10
2017-10-26T15:19:28.596Z,90.30
2017-10-26T15:21:56.032Z,90.20
2017-10-26T15:24:24.224Z,90.90
2017-10-26T15:26:51.656Z,90.50
2017-10-26T15:29:19.094Z,90.10
2017-10-26T15:31:46.532Z,90.00
2017-10-26T15:34:13.968Z,90.30
2017-10-26T15:36:41.421Z,90.00
2017-10-26T15:39:08.843Z,90.10
2017-10-26T15:41:37.056Z,90.50
2017-10-26T15:44:04.522Z,90.50
2017-10-26T15:46:32.112Z,90.60
2017-10-26T15:48:59.611Z,90.40
2017-10-26T15:51:27.049Z,90.60
2017-10-26T15:53:55.300Z,90.50
2017-10-26T15:56:22.731Z,90.50
2017-10-26T15:58:50.189Z,90.50
2017-10-26T16:01:17.701Z,90.70
2017-10-26T16:03:45.981Z,90.80
2017-10-26T16:06:14.188Z,90.90
2017-10-26T16:08:41.698Z,90.80
2017-10-26T16:11:09.107Z,91.00
2017-10-26T16:13:36.615Z,90.80
2017-10-26T16:16:04.047Z,90.70
2017-10-26T16:18:31.488Z,90.80
2017-10-26T16:20:58.929Z,91.00
2017-10-26T16:23:26.361Z,91.20
2017-10-26T16:25:54.569Z,91.10
2017-10-26T16:28:22.009Z,91.10
2017-10-26T16:30:49.431Z,91.20
2017-10-26T16:33:16.871Z,91.40
2017-10-26T16:35:44.967Z,91.50
2017-10-26T16:38:13.175Z,91.40
2017-10-26T16:40:40.699Z,91.40
2017-10-26T16:43:08.129Z,92.00
2017-10-26T16:45:35.560Z,92.50
2017-10-26T16:48:02.999Z,92.50
2017-10-26T16:50:30.424Z,92.60
2017-10-26T16:52:58.619Z,92.40
2017-10-26T16:55:26.051Z,92.40
2017-10-26T16:57:54.249Z,93.10
2017-10-26T17:00:21.791Z,93.10
2017-10-26T17:02:49.992Z,93.20
2017-10-26T17:05:17.531Z,93.20
2017-10-26T17:07:45.735Z,93.30
2017-10-26T17:10:13.160Z,93.20
2017-10-26T17:12:41.372Z,93.20
2017-10-26T17:15:08.804Z,93.10
2017-10-26T17:17:36.231Z,93.10
2017-10-26T17:20:03.671Z,93.50
2017-10-26T17:22:31.106Z,93.40
2017-10-26T17:24:58.613Z,93.50
2017-10-26T17:27:26.832Z,93.50
2017-10-26T17:29:54.257Z,93.50
2017-10-26T17:32:22.457Z,94.00
2017-10-26T17:34:49.880Z,94.00
2017-10-26T17:37:18.094Z,94.10
2017-10-26T17:39:45.524Z,94.10
2017-10-26T17:42:13.061Z,93.90
2017-10-26T17:44:40.492Z,94.10
2017-10-26T17:47:07.941Z,94.30
2017-10-26T17:49:35.372Z,94.20
2017-10-26T17:52:02.800Z,94.20
2017-10-26T17:54:31.009Z,94.00
2017-10-26T17:56:58.462Z,94.00
2017-10-26T17:59:25.876Z,94.30
2017-10-26T18:01:54.081Z,94.30
2017-10-26T18:04:21.520Z,94.30
2017-10-26T18:06:48.974Z,94.50
2017-10-26T18:09:17.167Z,94.40
2017-10-26T18:11:44.618Z,94.30
2017-10-26T18:14:12.059Z,94.20
2017-10-26T18:16:40.256Z,94.20
2017-10-26T18:19:07.888Z,94.10
2017-10-26T18:21:35.307Z,94.10
2017-10-26T18:24:02.813Z,94.00
2017-10-26T18:26:30.241Z,94.10
2017-10-26T18:28:57.675Z,94.20
2017-10-26T18:31:25.176Z,94.30
2017-10-26T18:33:53.376Z,94.40
2017-10-26T18:36:20.826Z,94.40
2017-10-26T18:38:49.025Z,94.40
2017-10-26T18:41:16.451Z,94.40
2017-10-26T18:43:44.724Z,94.50
2017-10-26T18:46:12.916Z,94.40
2017-10-26T18:48:40.352Z,94.30
2017-10-26T18:51:08.560Z,94.30
2017-10-26T18:53:35.996Z,94.30
2017-10-26T18:56:03.424Z,94.40
2017-10-26T18:58:30.868Z,94.60
2017-10-26T19:00:58.299Z,94.60
2017-10-26T19:03:25.755Z,94.50
2017-10-26T19:05:53.177Z,94.60
2017-10-26T19:08:20.612Z,94.50
2017-10-26T19:10:48.032Z,94.90
2017-10-26T19:13:15.473Z,94.50
2017-10-26T19:15:42.909Z,94.50
2017-10-26T19:18:10.348Z,94.60
2017-10-26T19:20:38.543Z,94.70
2017-10-26T19:23:05.972Z,94.70
2017-10-26T19:25:34.173Z,94.70
2017-10-26T19:28:01.611Z,94.70
2017-10-26T19:30:29.874Z,94.90
2017-10-26T19:32:57.347Z,94.90
2017-10-26T19:35:25.561Z,95.00
2017-10-26T19:37:52.996Z,95.00
2017-10-26T19:40:20.426Z,95.10
2017-10-26T19:42:48.633Z,95.00
2017-10-26T19:45:16.067Z,95.30
2017-10-26T19:47:43.519Z,95.20
2017-10-26T19:50:11.739Z,95.30
2017-10-26T19:52:39.190Z,95.30
2017-10-26T19:55:06.624Z,95.30
2017-10-26T19:57:34.059Z,95.20
2017-10-26T20:00:02.258Z,95.40
2017-10-26T20:02:29.695Z,95.40
2017-10-26T20:04:57.891Z,95.40
2017-10-26T20:07:25.344Z,95.40
2017-10-26T20:09:52.777Z,95.40
2017-10-26T20:12:21.052Z,95.80
2017-10-26T20:14:49.253Z,95.80
2017-10-26T20:17:16.696Z,95.80
2017-10-26T20:19:44.939Z,95.90
2017-10-26T20:22:12.583Z,95.90
2017-10-26T20:24:39.996Z,95.90
2017-10-26T20:27:08.204Z,95.90
2017-10-26T20:29:35.631Z,95.90
2017-10-26T20:32:03.092Z,95.90
2017-10-26T20:34:30.533Z,96.00
2017-10-26T20:36:58.733Z,96.40
2017-10-26T20:39:26.200Z,96.00
2017-10-26T20:41:53.613Z,96.00
2017-10-26T20:44:21.063Z,96.30
2017-10-26T20:46:49.260Z,96.70
2017-10-26T20:49:22.308Z,96.70
2017-10-26T20:51:55.447Z,96.60
2017-10-26T20:54:28.513Z,96.70
2017-10-26T20:57:02.482Z,96.50
2017-10-26T20:59:35.590Z,96.50
2017-10-26T21:02:08.746Z,96.50
2017-10-26T21:04:41.997Z,96.30
2017-10-26T21:07:15.928Z,96.30
2017-10-26T21:09:43.359Z,96.30
2017-10-26T21:12:17.313Z,96.30
2017-10-26T21:14:44.743Z,96.20
2017-10-26T21:17:12.176Z,96.30
2017-10-26T21:19:39.635Z,96.30
2017-10-26T21:22:07.069Z,96.30
2017-10-26T21:24:34.504Z,96.30
2017-10-26T21:27:01.932Z,96.20
2017-10-26T21:29:29.361Z,96.10
2017-10-26T21:31:56.795Z,96.10
2017-10-26T21:34:24.281Z,96.10
2017-10-26T21:36:52.485Z,96.20
2017-10-26T21:39:19.912Z,96.20
2017-10-26T21:41:48.107Z,96.20
2017-10-26T21:44:15.544Z,96.20
2017-10-26T21:46:43.745Z,96.00
2017-10-26T21:49:11.173Z,96.00
2017-10-26T21:51:45.247Z,96.00
2017-10-26T21:54:12.688Z,96.00
2017-10-26T21:56:40.123Z,96.20
2017-10-26T21:59:07.556Z,96.40
2017-10-26T22:01:35.747Z,96.40
2017-10-26T22:04:03.184Z,96.40
2017-10-26T22:06:35.368Z,96.60
2017-10-26T22:09:02.784Z,96.40
2017-10-26T22:11:30.211Z,96.50
2017-10-26T22:13:57.642Z,96.60
2017-10-26T22:16:25.073Z,96.80
2017-10-26T22:18:52.504Z,96.80
2017-10-26T22:21:19.936Z,96.90
2017-10-26T22:23:47.376Z,96.90
2017-10-26T22:26:14.796Z,97.00
2017-10-26T22:28:42.240Z,97.00
2017-10-26T22:31:09.662Z,97.00
2017-10-26T22:33:37.105Z,97.00
2017-10-26T22:36:04.528Z,96.90
2017-10-26T22:38:31.993Z,96.90
2017-10-26T22:41:00.208Z,97.10
2017-10-26T22:43:27.640Z,97.10
2017-10-26T22:45:55.080Z,97.30
2017-10-26T22:48:23.271Z,97.30
2017-10-26T22:50:50.704Z,97.20
2017-10-26T22:53:18.943Z,96.90
2017-10-26T22:55:46.390Z,96.80
2017-10-26T22:58:13.812Z,96.20
2017-10-26T23:00:41.251Z,96.20
2017-10-26T23:03:08.680Z,96.30
2017-10-26T23:05:36.143Z,96.40
2017-10-26T23:08:03.581Z,96.50
2017-10-26T23:10:31.018Z,96.70
2017-10-26T23:12:58.449Z,96.80
2017-10-26T23:15:26.643Z,96.50
2017-10-26T23:17:54.077Z,96.50
2017-10-26T23:20:22.286Z,96.50
2017-10-26T23:22:49.713Z,96.50
2017-10-26T23:25:17.937Z,96.20
2017-10-26T23:27:45.343Z,96.20
2017-10-26T23:30:12.776Z,96.40
2017-10-26T23:32:40.200Z,96.60
2017-10-26T23:35:08.402Z,95.90
2017-10-26T23:37:35.837Z,95.80
2017-10-26T23:40:03.281Z,95.80
2017-10-26T23:42:30.715Z,95.70
2017-10-26T23:44:58.151Z,95.70
2017-10-26T23:47:26.356Z,95.40
2017-10-26T23:49:53.787Z,95.40
2017-10-26T23:52:21.998Z,95.30
2017-10-26T23:54:49.419Z,95.30
2017-10-26T23:57:17.611Z,95.30
2017-10-26T23:59:45.039Z,95.30
